sensor_id;sensor_type;location;lat;lon;timestamp;temperature;humidity
27803;DHT22;15182;48.174;11.562;2023-02-28T00:01:32;3.70;84.20
27803;DHT22;15182;48.174;11.562;2023-02-28T00:04:03;3.70;84.10
27803;DHT22;15182;48.174;11.562;2023-02-28T00:06:37;3.70;84.10
27803;DHT22;15182;48.174;11.562;2023-02-28T00:09:09;3.70;84.10
27803;DHT22;15182;48.174;11.562;2023-02-28T00:11:49;3.70;84.10
27803;DHT22;15182;48.174;11.562;2023-02-28T00:14:20;3.60;84.00
27803;DHT22;15182;48.174;11.562;2023-02-28T00:16:51;3.60;84.10
27803;DHT22;15182;48.174;11.562;2023-02-28T00:19:22;3.60;84.10
27803;DHT22;15182;48.174;11.562;2023-02-28T00:21:53;3.60;84.10
27803;DHT22;15182;48.174;11.562;2023-02-28T00:24:25;3.60;84.10
27803;DHT22;15182;48.174;11.562;2023-02-28T00:26:58;3.60;84.10
27803;DHT22;15182;48.174;11.562;2023-02-28T00:29:29;3.60;84.10
27803;DHT22;15182;48.174;11.562;2023-02-28T00:32:00;3.60;84.10
27803;DHT22;15182;48.174;11.562;2023-02-28T00:34:33;3.60;84.10
27803;DHT22;15182;48.174;11.562;2023-02-28T00:37:07;3.60;84.10
27803;DHT22;15182;48.174;11.562;2023-02-28T00:39:40;3.60;84.20
27803;DHT22;15182;48.174;11.562;2023-02-28T00:42:13;3.60;84.20
27803;DHT22;15182;48.174;11.562;2023-02-28T00:44:44;3.60;84.20
27803;DHT22;15182;48.174;11.562;2023-02-28T00:47:16;3.50;84.10
27803;DHT22;15182;48.174;11.562;2023-02-28T00:49:47;3.60;84.30
27803;DHT22;15182;48.174;11.562;2023-02-28T00:52:18;3.50;84.20
27803;DHT22;15182;48.174;11.562;2023-02-28T00:54:50;3.60;84.30
27803;DHT22;15182;48.174;11.562;2023-02-28T00:57:23;3.60;84.20
27803;DHT22;15182;48.174;11.562;2023-02-28T00:59:54;3.60;84.20
27803;DHT22;15182;48.174;11.562;2023-02-28T01:02:25;3.60;84.20
27803;DHT22;15182;48.174;11.562;2023-02-28T01:04:56;3.50;84.20
27803;DHT22;15182;48.174;11.562;2023-02-28T01:07:31;3.50;84.20
27803;DHT22;15182;48.174;11.562;2023-02-28T01:10:02;3.50;84.20
27803;DHT22;15182;48.174;11.562;2023-02-28T01:12:36;3.50;84.30
27803;DHT22;15182;48.174;11.562;2023-02-28T01:15:09;3.50;84.40
27803;DHT22;15182;48.174;11.562;2023-02-28T01:17:41;3.50;84.40
27803;DHT22;15182;48.174;11.562;2023-02-28T01:20:14;3.50;84.40
27803;DHT22;15182;48.174;11.562;2023-02-28T01:22:45;3.50;84.40
27803;DHT22;15182;48.174;11.562;2023-02-28T01:25:16;3.50;84.40
27803;DHT22;15182;48.174;11.562;2023-02-28T01:27:49;3.50;84.40
27803;DHT22;15182;48.174;11.562;2023-02-28T01:30:21;3.40;84.40
27803;DHT22;15182;48.174;11.562;2023-02-28T01:32:52;3.40;84.40
27803;DHT22;15182;48.174;11.562;2023-02-28T01:35:24;3.40;84.50
27803;DHT22;15182;48.174;11.562;2023-02-28T01:37:56;3.40;84.50
27803;DHT22;15182;48.174;11.562;2023-02-28T01:40:27;3.40;84.50
27803;DHT22;15182;48.174;11.562;2023-02-28T01:43:00;3.40;84.50
27803;DHT22;15182;48.174;11.562;2023-02-28T01:45:32;3.40;84.50
27803;DHT22;15182;48.174;11.562;2023-02-28T01:48:07;3.40;84.60
27803;DHT22;15182;48.174;11.562;2023-02-28T01:50:43;3.40;84.60
27803;DHT22;15182;48.174;11.562;2023-02-28T01:53:19;3.40;84.60
27803;DHT22;15182;48.174;11.562;2023-02-28T01:55:55;3.40;84.60
27803;DHT22;15182;48.174;11.562;2023-02-28T01:58:28;3.40;84.60
27803;DHT22;15182;48.174;11.562;2023-02-28T02:00:59;3.40;84.60
27803;DHT22;15182;48.174;11.562;2023-02-28T02:03:32;3.40;84.70
27803;DHT22;15182;48.174;11.562;2023-02-28T02:06:04;3.40;84.80
27803;DHT22;15182;48.174;11.562;2023-02-28T02:08:38;3.30;84.70
27803;DHT22;15182;48.174;11.562;2023-02-28T02:11:10;3.40;84.80
27803;DHT22;15182;48.174;11.562;2023-02-28T02:13:56;3.30;84.80
27803;DHT22;15182;48.174;11.562;2023-02-28T02:16:51;3.30;84.70
27803;DHT22;15182;48.174;11.562;2023-02-28T02:19:46;3.30;84.70
27803;DHT22;15182;48.174;11.562;2023-02-28T02:26:06;3.30;84.80
27803;DHT22;15182;48.174;11.562;2023-02-28T02:29:18;3.30;84.80
27803;DHT22;15182;48.174;11.562;2023-02-28T02:32:25;3.20;84.90
27803;DHT22;15182;48.174;11.562;2023-02-28T02:35:22;3.20;85.00
27803;DHT22;15182;48.174;11.562;2023-02-28T02:38:02;3.20;85.00
27803;DHT22;15182;48.174;11.562;2023-02-28T02:40:41;3.20;85.00
27803;DHT22;15182;48.174;11.562;2023-02-28T02:43:19;3.10;85.00
27803;DHT22;15182;48.174;11.562;2023-02-28T02:45:59;3.10;85.10
27803;DHT22;15182;48.174;11.562;2023-02-28T02:48:33;3.10;85.20
27803;DHT22;15182;48.174;11.562;2023-02-28T02:51:10;3.10;85.20
27803;DHT22;15182;48.174;11.562;2023-02-28T02:53:48;3.10;85.30
27803;DHT22;15182;48.174;11.562;2023-02-28T02:56:24;3.10;85.30
27803;DHT22;15182;48.174;11.562;2023-02-28T02:59:03;3.10;85.30
27803;DHT22;15182;48.174;11.562;2023-02-28T03:01:38;3.10;85.30
27803;DHT22;15182;48.174;11.562;2023-02-28T03:04:17;3.10;85.30
27803;DHT22;15182;48.174;11.562;2023-02-28T03:06:52;3.10;85.40
27803;DHT22;15182;48.174;11.562;2023-02-28T03:09:24;3.10;85.40
27803;DHT22;15182;48.174;11.562;2023-02-28T03:11:59;3.10;85.50
27803;DHT22;15182;48.174;11.562;2023-02-28T03:14:39;3.10;85.60
27803;DHT22;15182;48.174;11.562;2023-02-28T03:17:45;3.10;85.70
27803;DHT22;15182;48.174;11.562;2023-02-28T03:20:32;3.10;85.70
27803;DHT22;15182;48.174;11.562;2023-02-28T03:23:19;3.10;85.80
27803;DHT22;15182;48.174;11.562;2023-02-28T03:25:59;3.00;85.90
27803;DHT22;15182;48.174;11.562;2023-02-28T03:28:39;3.00;85.90
27803;DHT22;15182;48.174;11.562;2023-02-28T03:31:18;3.00;85.90
27803;DHT22;15182;48.174;11.562;2023-02-28T03:33:54;3.10;86.00
27803;DHT22;15182;48.174;11.562;2023-02-28T03:36:32;3.10;86.00
27803;DHT22;15182;48.174;11.562;2023-02-28T03:39:16;3.00;86.00
27803;DHT22;15182;48.174;11.562;2023-02-28T03:41:53;3.00;86.10
27803;DHT22;15182;48.174;11.562;2023-02-28T03:44:33;3.10;86.20
27803;DHT22;15182;48.174;11.562;2023-02-28T03:47:13;3.00;86.10
27803;DHT22;15182;48.174;11.562;2023-02-28T03:49:49;3.00;86.20
27803;DHT22;15182;48.174;11.562;2023-02-28T03:52:25;3.00;86.20
27803;DHT22;15182;48.174;11.562;2023-02-28T03:55:03;3.00;86.30
27803;DHT22;15182;48.174;11.562;2023-02-28T03:57:41;3.00;86.40
27803;DHT22;15182;48.174;11.562;2023-02-28T04:00:21;3.00;86.30
27803;DHT22;15182;48.174;11.562;2023-02-28T04:02:56;3.00;86.40
27803;DHT22;15182;48.174;11.562;2023-02-28T04:05:28;2.90;86.30
27803;DHT22;15182;48.174;11.562;2023-02-28T04:08:07;3.00;86.50
27803;DHT22;15182;48.174;11.562;2023-02-28T04:10:41;3.00;86.60
27803;DHT22;15182;48.174;11.562;2023-02-28T04:13:14;2.90;86.50
27803;DHT22;15182;48.174;11.562;2023-02-28T04:15:45;2.90;87.30
27803;DHT22;15182;48.174;11.562;2023-02-28T04:18:19;2.90;86.50
27803;DHT22;15182;48.174;11.562;2023-02-28T04:20:50;2.90;86.60
27803;DHT22;15182;48.174;11.562;2023-02-28T04:23:22;2.90;86.60
27803;DHT22;15182;48.174;11.562;2023-02-28T04:25:56;2.90;86.60
27803;DHT22;15182;48.174;11.562;2023-02-28T04:28:27;2.90;86.80
27803;DHT22;15182;48.174;11.562;2023-02-28T04:31:00;2.90;86.80
27803;DHT22;15182;48.174;11.562;2023-02-28T04:33:33;2.90;87.00
27803;DHT22;15182;48.174;11.562;2023-02-28T04:36:06;2.90;86.90
27803;DHT22;15182;48.174;11.562;2023-02-28T04:38:38;2.90;87.00
27803;DHT22;15182;48.174;11.562;2023-02-28T04:41:12;2.90;87.10
27803;DHT22;15182;48.174;11.562;2023-02-28T04:43:44;2.90;87.20
27803;DHT22;15182;48.174;11.562;2023-02-28T04:46:18;3.00;87.20
27803;DHT22;15182;48.174;11.562;2023-02-28T04:48:50;3.00;87.30
27803;DHT22;15182;48.174;11.562;2023-02-28T04:51:22;3.00;87.20
27803;DHT22;15182;48.174;11.562;2023-02-28T04:53:54;3.00;87.30
27803;DHT22;15182;48.174;11.562;2023-02-28T04:56:28;3.00;87.30
27803;DHT22;15182;48.174;11.562;2023-02-28T04:58:59;3.10;87.40
27803;DHT22;15182;48.174;11.562;2023-02-28T05:01:33;3.10;87.40
27803;DHT22;15182;48.174;11.562;2023-02-28T05:04:06;3.10;87.40
27803;DHT22;15182;48.174;11.562;2023-02-28T05:06:37;3.10;87.40
27803;DHT22;15182;48.174;11.562;2023-02-28T05:09:10;3.10;87.40
27803;DHT22;15182;48.174;11.562;2023-02-28T05:11:43;3.10;87.50
27803;DHT22;15182;48.174;11.562;2023-02-28T05:14:16;3.10;87.50
27803;DHT22;15182;48.174;11.562;2023-02-28T05:16:47;3.10;87.50
27803;DHT22;15182;48.174;11.562;2023-02-28T05:19:20;3.10;87.50
27803;DHT22;15182;48.174;11.562;2023-02-28T05:21:53;3.10;87.70
27803;DHT22;15182;48.174;11.562;2023-02-28T05:24:27;3.10;87.70
27803;DHT22;15182;48.174;11.562;2023-02-28T05:27:00;3.20;87.80
27803;DHT22;15182;48.174;11.562;2023-02-28T05:29:31;3.20;87.80
27803;DHT22;15182;48.174;11.562;2023-02-28T05:32:09;3.20;87.80
27803;DHT22;15182;48.174;11.562;2023-02-28T05:34:41;3.20;87.80
27803;DHT22;15182;48.174;11.562;2023-02-28T05:37:15;3.20;87.70
27803;DHT22;15182;48.174;11.562;2023-02-28T05:39:46;3.30;87.90
27803;DHT22;15182;48.174;11.562;2023-02-28T05:42:19;3.30;87.80
27803;DHT22;15182;48.174;11.562;2023-02-28T05:44:50;3.20;87.70
27803;DHT22;15182;48.174;11.562;2023-02-28T05:47:23;3.30;87.80
27803;DHT22;15182;48.174;11.562;2023-02-28T05:49:54;3.30;87.80
27803;DHT22;15182;48.174;11.562;2023-02-28T05:52:27;3.30;87.70
27803;DHT22;15182;48.174;11.562;2023-02-28T05:54:58;3.30;87.70
27803;DHT22;15182;48.174;11.562;2023-02-28T05:57:31;3.30;87.70
27803;DHT22;15182;48.174;11.562;2023-02-28T06:00:01;3.30;87.80
27803;DHT22;15182;48.174;11.562;2023-02-28T06:02:40;3.30;87.80
27803;DHT22;15182;48.174;11.562;2023-02-28T06:05:15;3.30;87.70
27803;DHT22;15182;48.174;11.562;2023-02-28T06:07:48;3.30;87.80
27803;DHT22;15182;48.174;11.562;2023-02-28T06:10:21;3.30;87.70
27803;DHT22;15182;48.174;11.562;2023-02-28T06:12:54;3.30;88.50
27803;DHT22;15182;48.174;11.562;2023-02-28T06:15:27;3.30;87.70
27803;DHT22;15182;48.174;11.562;2023-02-28T06:17:59;3.30;88.60
27803;DHT22;15182;48.174;11.562;2023-02-28T06:20:33;3.30;87.70
27803;DHT22;15182;48.174;11.562;2023-02-28T06:23:04;3.30;87.70
27803;DHT22;15182;48.174;11.562;2023-02-28T06:25:35;3.30;87.60
27803;DHT22;15182;48.174;11.562;2023-02-28T06:28:08;3.30;87.70
27803;DHT22;15182;48.174;11.562;2023-02-28T06:30:39;3.30;87.70
27803;DHT22;15182;48.174;11.562;2023-02-28T06:33:11;3.30;87.80
27803;DHT22;15182;48.174;11.562;2023-02-28T06:35:45;3.30;87.80
27803;DHT22;15182;48.174;11.562;2023-02-28T06:38:18;3.30;87.80
27803;DHT22;15182;48.174;11.562;2023-02-28T06:40:55;3.30;87.80
27803;DHT22;15182;48.174;11.562;2023-02-28T06:43:30;3.40;88.00
27803;DHT22;15182;48.174;11.562;2023-02-28T06:46:07;3.30;87.90
27803;DHT22;15182;48.174;11.562;2023-02-28T06:48:42;3.40;88.00
27803;DHT22;15182;48.174;11.562;2023-02-28T06:51:16;3.40;88.00
27803;DHT22;15182;48.174;11.562;2023-02-28T06:53:50;3.40;87.90
27803;DHT22;15182;48.174;11.562;2023-02-28T06:56:22;3.40;87.80
27803;DHT22;15182;48.174;11.562;2023-02-28T06:58:54;3.40;87.70
27803;DHT22;15182;48.174;11.562;2023-02-28T07:01:25;3.50;87.80
27803;DHT22;15182;48.174;11.562;2023-02-28T07:03:57;3.40;87.80
27803;DHT22;15182;48.174;11.562;2023-02-28T07:06:29;3.50;87.80
27803;DHT22;15182;48.174;11.562;2023-02-28T07:09:01;3.50;87.80
27803;DHT22;15182;48.174;11.562;2023-02-28T07:11:32;3.50;87.80
27803;DHT22;15182;48.174;11.562;2023-02-28T07:14:05;3.50;87.80
27803;DHT22;15182;48.174;11.562;2023-02-28T07:16:37;3.50;87.80
27803;DHT22;15182;48.174;11.562;2023-02-28T07:19:08;3.50;87.70
27803;DHT22;15182;48.174;11.562;2023-02-28T07:21:39;3.50;88.50
27803;DHT22;15182;48.174;11.562;2023-02-28T07:24:10;3.50;87.70
27803;DHT22;15182;48.174;11.562;2023-02-28T07:26:43;3.50;87.70
27803;DHT22;15182;48.174;11.562;2023-02-28T07:29:16;3.50;87.60
27803;DHT22;15182;48.174;11.562;2023-02-28T07:31:47;3.50;87.60
27803;DHT22;15182;48.174;11.562;2023-02-28T07:34:21;3.50;87.50
27803;DHT22;15182;48.174;11.562;2023-02-28T07:36:54;3.50;87.60
27803;DHT22;15182;48.174;11.562;2023-02-28T07:39:25;3.50;87.60
27803;DHT22;15182;48.174;11.562;2023-02-28T07:41:57;3.50;87.50
27803;DHT22;15182;48.174;11.562;2023-02-28T07:44:31;3.60;87.60
27803;DHT22;15182;48.174;11.562;2023-02-28T07:47:02;3.60;87.70
27803;DHT22;15182;48.174;11.562;2023-02-28T07:49:34;3.60;87.70
27803;DHT22;15182;48.174;11.562;2023-02-28T07:52:07;3.60;87.70
27803;DHT22;15182;48.174;11.562;2023-02-28T07:54:39;3.60;87.60
27803;DHT22;15182;48.174;11.562;2023-02-28T07:57:10;3.60;87.70
27803;DHT22;15182;48.174;11.562;2023-02-28T07:59:42;3.60;87.60
27803;DHT22;15182;48.174;11.562;2023-02-28T08:02:16;3.60;87.50
27803;DHT22;15182;48.174;11.562;2023-02-28T08:04:47;3.70;87.40
27803;DHT22;15182;48.174;11.562;2023-02-28T08:07:19;3.70;87.50
27803;DHT22;15182;48.174;11.562;2023-02-28T08:09:50;3.70;87.50
27803;DHT22;15182;48.174;11.562;2023-02-28T08:12:21;3.70;87.40
27803;DHT22;15182;48.174;11.562;2023-02-28T08:14:54;3.70;87.40
27803;DHT22;15182;48.174;11.562;2023-02-28T08:17:25;3.70;87.40
27803;DHT22;15182;48.174;11.562;2023-02-28T08:19:56;3.70;87.40
27803;DHT22;15182;48.174;11.562;2023-02-28T08:22:28;3.70;87.30
27803;DHT22;15182;48.174;11.562;2023-02-28T08:24:59;3.70;87.30
27803;DHT22;15182;48.174;11.562;2023-02-28T08:27:30;3.70;87.30
27803;DHT22;15182;48.174;11.562;2023-02-28T08:30:03;3.70;87.20
27803;DHT22;15182;48.174;11.562;2023-02-28T08:32:35;3.70;87.20
27803;DHT22;15182;48.174;11.562;2023-02-28T08:35:08;3.70;87.10
27803;DHT22;15182;48.174;11.562;2023-02-28T08:37:40;3.70;87.00
27803;DHT22;15182;48.174;11.562;2023-02-28T08:40:12;3.70;87.00
27803;DHT22;15182;48.174;11.562;2023-02-28T08:42:46;3.70;87.00
27803;DHT22;15182;48.174;11.562;2023-02-28T08:45:19;3.70;86.90
27803;DHT22;15182;48.174;11.562;2023-02-28T08:47:51;3.70;87.20
27803;DHT22;15182;48.174;11.562;2023-02-28T08:50:22;3.70;87.30
27803;DHT22;15182;48.174;11.562;2023-02-28T08:52:53;3.70;87.30
27803;DHT22;15182;48.174;11.562;2023-02-28T08:55:24;3.70;87.30
27803;DHT22;15182;48.174;11.562;2023-02-28T08:57:55;3.80;87.40
27803;DHT22;15182;48.174;11.562;2023-02-28T09:00:28;3.80;87.30
27803;DHT22;15182;48.174;11.562;2023-02-28T09:03:00;3.80;87.30
27803;DHT22;15182;48.174;11.562;2023-02-28T09:05:31;3.80;87.30
27803;DHT22;15182;48.174;11.562;2023-02-28T09:08:02;3.90;87.30
27803;DHT22;15182;48.174;11.562;2023-02-28T09:10:34;3.90;87.30
27803;DHT22;15182;48.174;11.562;2023-02-28T09:13:05;3.90;87.30
27803;DHT22;15182;48.174;11.562;2023-02-28T09:15:40;4.00;87.30
27803;DHT22;15182;48.174;11.562;2023-02-28T09:18:11;4.00;87.20
27803;DHT22;15182;48.174;11.562;2023-02-28T09:20:44;4.00;87.20
27803;DHT22;15182;48.174;11.562;2023-02-28T09:23:15;4.00;87.20
27803;DHT22;15182;48.174;11.562;2023-02-28T09:25:48;4.10;87.20
27803;DHT22;15182;48.174;11.562;2023-02-28T09:28:20;4.10;87.20
27803;DHT22;15182;48.174;11.562;2023-02-28T09:30:55;4.10;87.30
27803;DHT22;15182;48.174;11.562;2023-02-28T09:33:26;4.20;87.30
27803;DHT22;15182;48.174;11.562;2023-02-28T09:36:08;4.20;87.20
27803;DHT22;15182;48.174;11.562;2023-02-28T09:38:40;4.20;87.10
27803;DHT22;15182;48.174;11.562;2023-02-28T09:41:16;4.20;87.10
27803;DHT22;15182;48.174;11.562;2023-02-28T09:43:52;4.20;86.90
27803;DHT22;15182;48.174;11.562;2023-02-28T09:46:29;4.30;87.00
27803;DHT22;15182;48.174;11.562;2023-02-28T09:49:06;4.30;86.90
27803;DHT22;15182;48.174;11.562;2023-02-28T09:51:46;4.30;87.00
27803;DHT22;15182;48.174;11.562;2023-02-28T09:54:22;4.30;86.90
27803;DHT22;15182;48.174;11.562;2023-02-28T09:57:00;4.30;86.90
27803;DHT22;15182;48.174;11.562;2023-02-28T09:59:42;4.30;87.70
27803;DHT22;15182;48.174;11.562;2023-02-28T10:02:28;4.30;86.80
27803;DHT22;15182;48.174;11.562;2023-02-28T10:05:11;4.30;86.80
27803;DHT22;15182;48.174;11.562;2023-02-28T10:07:53;4.30;86.70
27803;DHT22;15182;48.174;11.562;2023-02-28T10:10:36;4.30;86.70
27803;DHT22;15182;48.174;11.562;2023-02-28T10:13:16;4.40;86.60
27803;DHT22;15182;48.174;11.562;2023-02-28T10:15:52;4.40;86.60
27803;DHT22;15182;48.174;11.562;2023-02-28T10:18:30;4.40;86.70
27803;DHT22;15182;48.174;11.562;2023-02-28T10:21:04;4.50;86.80
27803;DHT22;15182;48.174;11.562;2023-02-28T10:23:39;4.50;86.70
27803;DHT22;15182;48.174;11.562;2023-02-28T10:26:14;4.60;86.60
27803;DHT22;15182;48.174;11.562;2023-02-28T10:28:48;4.60;86.40
27803;DHT22;15182;48.174;11.562;2023-02-28T10:31:21;4.60;86.30
27803;DHT22;15182;48.174;11.562;2023-02-28T10:33:54;4.70;86.10
27803;DHT22;15182;48.174;11.562;2023-02-28T10:36:25;4.70;86.00
27803;DHT22;15182;48.174;11.562;2023-02-28T10:38:57;4.60;86.00
27803;DHT22;15182;48.174;11.562;2023-02-28T10:41:31;4.70;86.30
27803;DHT22;15182;48.174;11.562;2023-02-28T10:44:20;4.70;86.60
27803;DHT22;15182;48.174;11.562;2023-02-28T10:46:52;4.90;87.00
27803;DHT22;15182;48.174;11.562;2023-02-28T10:49:26;5.10;87.40
27803;DHT22;15182;48.174;11.562;2023-02-28T10:52:00;5.30;87.10
27803;DHT22;15182;48.174;11.562;2023-02-28T10:54:35;5.50;86.60
27803;DHT22;15182;48.174;11.562;2023-02-28T10:57:15;5.70;86.10
27803;DHT22;15182;48.174;11.562;2023-02-28T10:59:52;5.80;85.80
27803;DHT22;15182;48.174;11.562;2023-02-28T11:02:36;6.00;85.90
27803;DHT22;15182;48.174;11.562;2023-02-28T11:05:28;6.10;85.90
27803;DHT22;15182;48.174;11.562;2023-02-28T11:08:05;6.30;85.20
27803;DHT22;15182;48.174;11.562;2023-02-28T11:10:43;6.40;85.30
27803;DHT22;15182;48.174;11.562;2023-02-28T11:13:20;6.60;84.90
27803;DHT22;15182;48.174;11.562;2023-02-28T11:15:55;6.60;84.20
27803;DHT22;15182;48.174;11.562;2023-02-28T11:18:32;6.60;83.80
27803;DHT22;15182;48.174;11.562;2023-02-28T11:21:07;6.60;83.60
27803;DHT22;15182;48.174;11.562;2023-02-28T11:23:45;6.60;83.60
27803;DHT22;15182;48.174;11.562;2023-02-28T11:26:17;6.60;83.60
27803;DHT22;15182;48.174;11.562;2023-02-28T11:29:11;6.60;83.40
27803;DHT22;15182;48.174;11.562;2023-02-28T11:31:45;6.60;83.70
27803;DHT22;15182;48.174;11.562;2023-02-28T11:34:32;6.70;84.10
27803;DHT22;15182;48.174;11.562;2023-02-28T11:37:11;6.80;84.20
27803;DHT22;15182;48.174;11.562;2023-02-28T11:39:45;6.90;84.00
27803;DHT22;15182;48.174;11.562;2023-02-28T11:42:41;7.10;84.00
27803;DHT22;15182;48.174;11.562;2023-02-28T11:45:36;7.20;83.50
27803;DHT22;15182;48.174;11.562;2023-02-28T11:48:22;7.30;82.80
27803;DHT22;15182;48.174;11.562;2023-02-28T11:51:05;7.40;83.10
27803;DHT22;15182;48.174;11.562;2023-02-28T11:53:50;7.40;83.20
27803;DHT22;15182;48.174;11.562;2023-02-28T11:56:31;7.60;82.80
27803;DHT22;15182;48.174;11.562;2023-02-28T11:59:20;7.70;82.60
27803;DHT22;15182;48.174;11.562;2023-02-28T12:02:31;7.80;82.30
27803;DHT22;15182;48.174;11.562;2023-02-28T12:05:15;7.90;82.10
27803;DHT22;15182;48.174;11.562;2023-02-28T12:08:03;8.00;82.30
27803;DHT22;15182;48.174;11.562;2023-02-28T12:10:49;8.10;82.20
27803;DHT22;15182;48.174;11.562;2023-02-28T12:13:29;8.20;82.10
27803;DHT22;15182;48.174;11.562;2023-02-28T12:19:17;8.30;81.60
27803;DHT22;15182;48.174;11.562;2023-02-28T12:22:16;8.40;81.40
27803;DHT22;15182;48.174;11.562;2023-02-28T12:25:18;8.50;81.40
27803;DHT22;15182;48.174;11.562;2023-02-28T12:27:53;8.50;81.70
27803;DHT22;15182;48.174;11.562;2023-02-28T12:30:27;8.50;81.90
27803;DHT22;15182;48.174;11.562;2023-02-28T12:33:10;8.70;82.10
27803;DHT22;15182;48.174;11.562;2023-02-28T12:35:48;8.80;81.40
27803;DHT22;15182;48.174;11.562;2023-02-28T12:38:26;9.00;81.80
27803;DHT22;15182;48.174;11.562;2023-02-28T12:41:02;9.10;81.50
27803;DHT22;15182;48.174;11.562;2023-02-28T12:43:40;9.20;81.50
27803;DHT22;15182;48.174;11.562;2023-02-28T12:46:17;9.30;80.60
27803;DHT22;15182;48.174;11.562;2023-02-28T12:48:53;9.40;80.10
27803;DHT22;15182;48.174;11.562;2023-02-28T12:51:27;9.40;80.10
27803;DHT22;15182;48.174;11.562;2023-02-28T12:54:04;9.40;80.90
27803;DHT22;15182;48.174;11.562;2023-02-28T12:56:43;9.50;79.60
27803;DHT22;15182;48.174;11.562;2023-02-28T12:59:22;9.50;79.50
27803;DHT22;15182;48.174;11.562;2023-02-28T13:02:30;9.50;79.40
27803;DHT22;15182;48.174;11.562;2023-02-28T13:05:21;9.50;79.20
27803;DHT22;15182;48.174;11.562;2023-02-28T13:08:17;9.50;78.90
27803;DHT22;15182;48.174;11.562;2023-02-28T13:10:56;9.50;78.60
27803;DHT22;15182;48.174;11.562;2023-02-28T13:13:29;9.40;79.40
27803;DHT22;15182;48.174;11.562;2023-02-28T13:16:06;9.30;79.00
27803;DHT22;15182;48.174;11.562;2023-02-28T13:18:39;9.30;78.80
27803;DHT22;15182;48.174;11.562;2023-02-28T13:21:25;9.20;79.00
27803;DHT22;15182;48.174;11.562;2023-02-28T13:23:59;9.10;78.80
27803;DHT22;15182;48.174;11.562;2023-02-28T13:29:40;9.00;78.60
27803;DHT22;15182;48.174;11.562;2023-02-28T13:32:35;8.90;79.30
27803;DHT22;15182;48.174;11.562;2023-02-28T13:35:43;8.90;78.90
27803;DHT22;15182;48.174;11.562;2023-02-28T13:38:23;8.90;79.20
27803;DHT22;15182;48.174;11.562;2023-02-28T13:44:15;8.80;79.20
27803;DHT22;15182;48.174;11.562;2023-02-28T13:47:21;8.70;79.70
27803;DHT22;15182;48.174;11.562;2023-02-28T13:50:15;8.70;79.20
27803;DHT22;15182;48.174;11.562;2023-02-28T13:52:54;8.70;79.10
27803;DHT22;15182;48.174;11.562;2023-02-28T13:55:36;8.70;79.50
27803;DHT22;15182;48.174;11.562;2023-02-28T13:58:22;8.60;79.20
27803;DHT22;15182;48.174;11.562;2023-02-28T14:01:14;8.60;79.20
27803;DHT22;15182;48.174;11.562;2023-02-28T14:04:02;8.50;79.30
27803;DHT22;15182;48.174;11.562;2023-02-28T14:06:50;8.50;79.50
27803;DHT22;15182;48.174;11.562;2023-02-28T14:09:25;8.40;79.30
27803;DHT22;15182;48.174;11.562;2023-02-28T14:15:55;8.40;79.40
27803;DHT22;15182;48.174;11.562;2023-02-28T14:18:29;8.30;79.50
27803;DHT22;15182;48.174;11.562;2023-02-28T14:21:16;8.30;79.90
27803;DHT22;15182;48.174;11.562;2023-02-28T14:24:21;8.20;79.70
27803;DHT22;15182;48.174;11.562;2023-02-28T14:33:24;8.20;79.80
27803;DHT22;15182;48.174;11.562;2023-02-28T14:36:03;8.20;79.80
27803;DHT22;15182;48.174;11.562;2023-02-28T14:38:40;8.10;79.80
27803;DHT22;15182;48.174;11.562;2023-02-28T14:41:17;8.10;79.80
27803;DHT22;15182;48.174;11.562;2023-02-28T14:43:53;8.10;80.00
27803;DHT22;15182;48.174;11.562;2023-02-28T14:46:28;8.10;80.10
27803;DHT22;15182;48.174;11.562;2023-02-28T14:49:06;8.10;80.10
27803;DHT22;15182;48.174;11.562;2023-02-28T14:51:41;8.10;80.10
27803;DHT22;15182;48.174;11.562;2023-02-28T14:54:16;8.10;80.20
27803;DHT22;15182;48.174;11.562;2023-02-28T14:56:52;8.10;80.30
27803;DHT22;15182;48.174;11.562;2023-02-28T14:59:29;8.10;80.30
27803;DHT22;15182;48.174;11.562;2023-02-28T15:02:21;8.10;80.10
27803;DHT22;15182;48.174;11.562;2023-02-28T15:04:55;8.10;79.80
27803;DHT22;15182;48.174;11.562;2023-02-28T15:07:30;8.10;80.10
27803;DHT22;15182;48.174;11.562;2023-02-28T15:10:19;8.00;79.90
27803;DHT22;15182;48.174;11.562;2023-02-28T15:12:56;8.00;79.90
27803;DHT22;15182;48.174;11.562;2023-02-28T15:15:39;8.00;80.00
27803;DHT22;15182;48.174;11.562;2023-02-28T15:18:21;8.00;80.00
27803;DHT22;15182;48.174;11.562;2023-02-28T15:20:57;7.90;80.00
27803;DHT22;15182;48.174;11.562;2023-02-28T15:23:33;7.90;80.20
27803;DHT22;15182;48.174;11.562;2023-02-28T15:26:06;7.90;80.40
27803;DHT22;15182;48.174;11.562;2023-02-28T15:28:38;7.90;80.40
27803;DHT22;15182;48.174;11.562;2023-02-28T15:31:21;7.90;80.40
27803;DHT22;15182;48.174;11.562;2023-02-28T15:33:57;7.90;80.20
27803;DHT22;15182;48.174;11.562;2023-02-28T15:36:34;7.80;80.40
27803;DHT22;15182;48.174;11.562;2023-02-28T15:39:21;7.80;80.40
27803;DHT22;15182;48.174;11.562;2023-02-28T15:42:10;7.80;80.20
27803;DHT22;15182;48.174;11.562;2023-02-28T15:44:45;7.80;80.20
27803;DHT22;15182;48.174;11.562;2023-02-28T15:47:20;7.80;80.50
27803;DHT22;15182;48.174;11.562;2023-02-28T15:49:56;7.80;80.60
27803;DHT22;15182;48.174;11.562;2023-02-28T15:52:37;7.80;80.60
27803;DHT22;15182;48.174;11.562;2023-02-28T15:55:16;7.80;80.60
27803;DHT22;15182;48.174;11.562;2023-02-28T15:57:52;7.80;80.80
27803;DHT22;15182;48.174;11.562;2023-02-28T16:00:30;7.80;80.90
27803;DHT22;15182;48.174;11.562;2023-02-28T16:03:01;7.80;80.90
27803;DHT22;15182;48.174;11.562;2023-02-28T16:06:26;7.80;81.00
27803;DHT22;15182;48.174;11.562;2023-02-28T16:09:05;7.80;80.80
27803;DHT22;15182;48.174;11.562;2023-02-28T16:11:39;7.80;81.30
27803;DHT22;15182;48.174;11.562;2023-02-28T16:14:16;7.80;81.30
27803;DHT22;15182;48.174;11.562;2023-02-28T16:16:50;7.80;81.30
27803;DHT22;15182;48.174;11.562;2023-02-28T16:19:22;7.80;81.40
27803;DHT22;15182;48.174;11.562;2023-02-28T16:21:54;7.80;81.30
27803;DHT22;15182;48.174;11.562;2023-02-28T16:24:27;7.80;81.00
27803;DHT22;15182;48.174;11.562;2023-02-28T16:26:59;7.80;80.90
27803;DHT22;15182;48.174;11.562;2023-02-28T16:29:34;7.80;81.00
27803;DHT22;15182;48.174;11.562;2023-02-28T16:32:06;7.80;81.00
27803;DHT22;15182;48.174;11.562;2023-02-28T16:34:41;7.70;81.00
27803;DHT22;15182;48.174;11.562;2023-02-28T16:37:17;7.70;81.10
27803;DHT22;15182;48.174;11.562;2023-02-28T16:39:49;7.70;81.10
27803;DHT22;15182;48.174;11.562;2023-02-28T16:42:23;7.70;81.10
27803;DHT22;15182;48.174;11.562;2023-02-28T16:44:57;7.70;81.10
27803;DHT22;15182;48.174;11.562;2023-02-28T16:47:30;7.60;81.20
27803;DHT22;15182;48.174;11.562;2023-02-28T16:50:04;7.60;81.20
27803;DHT22;15182;48.174;11.562;2023-02-28T16:52:39;7.60;81.30